Time;durP1;ratioP1;P1;durP2;ratioP2;P2;SDS_P1;SDS_P2;PMS_P1;PMS_P2;Temp;Humidity;BMP_temperature;BMP_pressure;BME280_temperature;BME280_humidity;BME280_pressure;Samples;Min_cycle;Max_cycle;Signal;HPM_P1;HPM_P2
2023/04/12 00:02:22;;;;;;;8.77;5.47;;;13.30;99.90;;;;;;4974346;28;20039;-86
2023/04/12 00:04:54;;;;;;;8.88;5.22;;;13.30;99.90;;;;;;4957198;28;20032;-85
2023/04/12 00:07:21;;;;;;;8.00;4.90;;;13.20;99.90;;;;;;4954088;29;20030;-86
2023/04/12 00:09:47;;;;;;;7.53;5.00;;;13.20;99.90;;;;;;4954272;29;20035;-84
2023/04/12 00:12:12;;;;;;;9.30;5.43;;;13.20;99.90;;;;;;4953917;29;20058;-86
2023/04/12 00:14:38;;;;;;;9.63;4.78;;;13.30;99.90;;;;;;4954151;29;20059;-86
2023/04/12 00:17:04;;;;;;;8.60;4.88;;;13.30;99.90;;;;;;4954153;29;20109;-85
2023/04/12 00:19:30;;;;;;;8.18;4.60;;;13.30;99.90;;;;;;4954212;29;20103;-85
2023/04/12 00:21:56;;;;;;;7.30;4.88;;;13.30;99.90;;;;;;4953935;29;20098;-86
2023/04/12 00:24:22;;;;;;;8.43;4.68;;;13.20;99.90;;;;;;4954116;29;20031;-85
2023/04/12 00:26:47;;;;;;;10.95;5.30;;;13.20;99.90;;;;;;4953610;29;20492;-85
2023/04/12 00:29:15;;;;;;;8.50;5.13;;;13.20;99.90;;;;;;4954381;28;20028;-86
2023/04/12 00:31:40;;;;;;;7.07;5.50;;;13.10;99.90;;;;;;4957673;28;20047;-85
2023/04/12 00:34:06;;;;;;;10.27;4.90;;;13.10;99.90;;;;;;4958129;28;20028;-86
2023/04/12 00:36:32;;;;;;;10.25;5.20;;;13.10;99.90;;;;;;4957811;28;20082;-86
2023/04/12 00:38:57;;;;;;;8.63;4.80;;;13.10;99.90;;;;;;4957856;28;20027;-86
2023/04/12 00:41:25;;;;;;;8.05;4.20;;;13.00;99.90;;;;;;4957589;28;20034;-85
2023/04/12 00:43:50;;;;;;;5.57;4.03;;;13.00;99.90;;;;;;4958016;28;20043;-85
2023/04/12 00:46:18;;;;;;;6.38;3.30;;;13.10;99.90;;;;;;4967745;28;20030;-85
2023/04/12 00:48:46;;;;;;;4.25;3.35;;;13.00;99.90;;;;;;4976675;28;20034;-85
2023/04/12 00:51:12;;;;;;;6.68;3.67;;;13.00;99.90;;;;;;4976833;28;20023;-86
2023/04/12 00:53:40;;;;;;;4.78;3.33;;;13.00;99.90;;;;;;4977062;28;20038;-86
2023/04/12 00:56:06;;;;;;;5.82;3.00;;;13.00;99.90;;;;;;4976243;28;20073;-86
2023/04/12 00:58:32;;;;;;;6.85;3.13;;;13.00;99.90;;;;;;4977028;28;20030;-85
2023/04/12 01:00:59;;;;;;;7.32;3.30;;;13.10;99.90;;;;;;4976554;28;20050;-84
2023/04/12 01:03:26;;;;;;;5.53;3.20;;;13.10;99.90;;;;;;4975938;28;20506;-85
2023/04/12 01:06:08;;;;;;;6.47;3.63;;;13.10;99.90;;;;;;4957258;29;20101;-86
2023/04/12 01:08:44;;;;;;;8.27;3.28;;;13.20;99.90;;;;;;4957081;29;20514;-85
2023/04/12 01:11:16;;;;;;;6.03;3.03;;;13.20;99.90;;;;;;4956826;29;20070;-85
2023/04/12 01:13:51;;;;;;;7.40;2.88;;;13.30;99.90;;;;;;4957804;29;20035;-85
2023/04/12 01:16:26;;;;;;;5.75;3.47;;;13.20;99.90;;;;;;4957241;29;20019;-85
2023/04/12 01:18:56;;;;;;;5.90;2.97;;;13.20;99.90;;;;;;4957171;29;20039;-85
2023/04/12 01:21:41;;;;;;;5.00;3.05;;;13.20;99.90;;;;;;4957002;29;20023;-86
2023/04/12 01:24:40;;;;;;;4.70;2.85;;;13.10;99.90;;;;;;4957112;29;20130;-86
2023/04/12 01:27:15;;;;;;;6.07;3.30;;;13.10;99.90;;;;;;4952241;29;20504;-86
2023/04/12 01:29:41;;;;;;;5.57;2.85;;;13.20;99.90;;;;;;4955622;29;20043;-85
2023/04/12 01:32:11;;;;;;;6.32;2.58;;;13.30;99.90;;;;;;4956702;28;20059;-86
2023/04/12 01:34:38;;;;;;;4.75;2.40;;;13.30;99.90;;;;;;4956855;28;20034;-86
2023/04/12 01:37:05;;;;;;;6.43;2.90;;;13.20;99.90;;;;;;4956729;28;20550;-85
2023/04/12 01:39:32;;;;;;;5.28;2.90;;;13.20;99.90;;;;;;4957518;28;20011;-85
2023/04/12 01:41:58;;;;;;;4.00;2.50;;;13.10;99.90;;;;;;4956190;28;20097;-85
2023/04/12 01:44:24;;;;;;;5.93;2.92;;;12.90;99.90;;;;;;4956724;28;20106;-85
2023/04/12 01:46:50;;;;;;;4.20;3.03;;;12.90;99.90;;;;;;4971473;28;20034;-86
2023/04/12 01:49:17;;;;;;;4.07;2.97;;;12.80;99.90;;;;;;4976165;28;20031;-86
2023/04/12 01:52:05;;;;;;;5.57;3.22;;;12.90;99.90;;;;;;4975563;28;20031;-86
2023/04/12 01:54:40;;;;;;;4.93;2.85;;;12.90;99.90;;;;;;4975711;28;20066;-86
2023/04/12 01:57:08;;;;;;;7.78;3.58;;;13.00;99.90;;;;;;4975601;28;20411;-86
2023/04/12 01:59:44;;;;;;;7.93;3.92;;;13.00;99.90;;;;;;4975457;28;20026;-85
2023/04/12 02:02:11;;;;;;;6.35;3.72;;;13.00;99.90;;;;;;4975626;28;20031;-86
2023/04/12 02:04:38;;;;;;;6.07;3.28;;;13.10;99.90;;;;;;4967641;28;20057;-86
2023/04/12 02:07:04;;;;;;;7.68;3.25;;;13.10;99.90;;;;;;4956422;29;20023;-85
2023/04/12 02:09:34;;;;;;;6.55;3.47;;;13.00;99.90;;;;;;4955747;29;20035;-85
2023/04/12 02:12:00;;;;;;;5.82;3.28;;;13.10;99.90;;;;;;4956317;29;20019;-85
2023/04/12 02:14:26;;;;;;;6.82;3.05;;;13.00;99.90;;;;;;4956079;28;20046;-85
2023/04/12 02:16:54;;;;;;;6.60;3.45;;;13.00;99.90;;;;;;4956421;29;20019;-86
2023/04/12 02:19:20;;;;;;;6.05;3.00;;;13.00;99.90;;;;;;4956031;28;20031;-85
2023/04/12 02:21:45;;;;;;;5.78;2.90;;;13.00;99.90;;;;;;4955951;29;20038;-85
2023/04/12 02:24:11;;;;;;;4.45;2.40;;;13.00;99.90;;;;;;4955285;29;20046;-85
2023/04/12 02:26:37;;;;;;;4.75;2.50;;;12.90;99.90;;;;;;4955907;29;20038;-85
2023/04/12 02:29:07;;;;;;;4.85;2.67;;;13.00;99.90;;;;;;4956126;29;20090;-86
2023/04/12 02:31:37;;;;;;;4.47;2.47;;;13.10;99.90;;;;;;4955691;28;20027;-85
2023/04/12 02:34:04;;;;;;;3.85;2.10;;;13.00;99.90;;;;;;4955779;28;20400;-86
2023/04/12 02:36:29;;;;;;;4.85;2.60;;;13.00;99.90;;;;;;4956463;28;20054;-86
2023/04/12 02:38:55;;;;;;;6.70;2.53;;;13.00;99.90;;;;;;4955257;28;20106;-86
2023/04/12 02:41:22;;;;;;;3.80;2.17;;;13.10;99.90;;;;;;4954752;29;20030;-86
2023/04/12 02:43:47;;;;;;;5.18;2.35;;;13.10;99.90;;;;;;4955405;28;20123;-85
2023/04/12 02:46:22;;;;;;;4.53;2.05;;;13.00;99.90;;;;;;4965756;28;20110;-85
2023/04/12 02:48:48;;;;;;;5.53;2.35;;;13.00;99.90;;;;;;4975062;28;20041;-86
2023/04/12 02:51:14;;;;;;;5.40;1.98;;;13.10;99.90;;;;;;4974373;28;20041;-85
2023/04/12 02:53:40;;;;;;;3.22;1.95;;;13.10;99.90;;;;;;4973812;28;20026;-85
2023/04/12 02:56:07;;;;;;;4.82;1.95;;;13.00;99.90;;;;;;4974685;28;20050;-85
2023/04/12 02:58:33;;;;;;;5.47;1.80;;;13.00;99.90;;;;;;4974789;28;20041;-86
2023/04/12 03:00:59;;;;;;;4.82;2.58;;;12.90;99.90;;;;;;4974371;28;20082;-85
2023/04/12 03:03:27;;;;;;;3.35;2.03;;;12.70;99.90;;;;;;4974363;28;20391;-85
2023/04/12 03:05:53;;;;;;;5.32;1.92;;;12.60;99.90;;;;;;4965407;28;20034;-85
2023/04/12 03:08:20;;;;;;;4.05;1.67;;;12.70;99.90;;;;;;4956067;28;20035;-86
2023/04/12 03:10:46;;;;;;;3.70;2.10;;;12.90;99.90;;;;;;4955519;29;20033;-86
2023/04/12 03:13:12;;;;;;;3.72;1.90;;;13.10;99.90;;;;;;4954452;29;20485;-85
2023/04/12 03:15:38;;;;;;;3.15;1.73;;;13.10;99.90;;;;;;4955374;29;20542;-85
2023/04/12 03:18:04;;;;;;;4.18;1.67;;;13.10;99.90;;;;;;4955302;29;20031;-85
2023/04/12 03:20:30;;;;;;;6.00;2.00;;;13.10;99.90;;;;;;4954751;29;20488;-85
2023/04/12 03:22:55;;;;;;;4.72;1.80;;;13.20;99.90;;;;;;4955128;29;20023;-85
2023/04/12 03:25:21;;;;;;;3.95;1.70;;;13.20;99.90;;;;;;4955507;29;20046;-85
2023/04/12 03:27:47;;;;;;;3.55;1.73;;;13.20;99.90;;;;;;4955543;29;20546;-86
2023/04/12 03:30:13;;;;;;;4.03;1.70;;;13.20;99.90;;;;;;4954775;29;20399;-86
2023/04/12 03:32:40;;;;;;;4.07;2.00;;;13.20;99.90;;;;;;4954650;28;20495;-86
2023/04/12 03:35:07;;;;;;;2.78;1.75;;;13.20;99.90;;;;;;4954955;28;20504;-85
2023/04/12 03:37:33;;;;;;;3.58;2.50;;;13.10;99.90;;;;;;4954766;28;20038;-86
2023/04/12 03:39:59;;;;;;;3.47;2.45;;;12.90;99.90;;;;;;4954277;28;20031;-86
2023/04/12 03:42:26;;;;;;;4.53;2.22;;;12.80;99.90;;;;;;4954811;28;20037;-85
2023/04/12 03:44:52;;;;;;;8.25;2.30;;;12.50;99.90;;;;;;4954626;28;20023;-85
2023/04/12 03:47:18;;;;;;;4.65;2.30;;;12.40;99.90;;;;;;4972287;28;20058;-85
2023/04/12 03:49:44;;;;;;;6.57;2.20;;;12.30;99.90;;;;;;4973050;28;20026;-85
2023/04/12 03:52:09;;;;;;;3.90;2.28;;;12.30;99.90;;;;;;4973444;28;20027;-85
2023/04/12 03:54:35;;;;;;;6.75;2.67;;;12.10;99.90;;;;;;4973916;28;20031;-85
2023/04/12 03:57:01;;;;;;;5.78;2.83;;;12.10;99.90;;;;;;4973135;28;20058;-85
2023/04/12 03:59:27;;;;;;;7.28;2.45;;;12.10;99.90;;;;;;4973461;28;20033;-86
2023/04/12 04:01:54;;;;;;;6.15;2.33;;;12.10;99.90;;;;;;4973491;28;20043;-85
2023/04/12 04:04:21;;;;;;;4.75;2.97;;;12.20;99.90;;;;;;4972865;28;20066;-85
2023/04/12 04:06:47;;;;;;;3.95;2.30;;;12.00;99.90;;;;;;4963288;28;20086;-86
2023/04/12 04:09:13;;;;;;;3.78;1.80;;;12.20;99.90;;;;;;4954224;29;20492;-86
2023/04/12 04:11:39;;;;;;;3.90;2.00;;;12.50;99.90;;;;;;4954157;29;20038;-86
2023/04/12 04:14:05;;;;;;;4.10;1.70;;;12.70;99.90;;;;;;4954483;29;20028;-86
2023/04/12 04:16:30;;;;;;;3.13;1.42;;;12.70;99.90;;;;;;4954227;29;20095;-85
2023/04/12 04:18:56;;;;;;;3.90;2.00;;;12.80;99.90;;;;;;4953626;29;20106;-85
2023/04/12 04:21:22;;;;;;;3.50;1.90;;;12.90;99.90;;;;;;4954028;29;20031;-87
2023/04/12 04:23:50;;;;;;;3.33;1.52;;;13.00;99.90;;;;;;4953806;29;20048;-85
2023/04/12 04:26:16;;;;;;;5.13;1.70;;;13.10;99.90;;;;;;4953801;29;20038;-86
2023/04/12 04:28:43;;;;;;;3.35;1.52;;;13.10;99.90;;;;;;4954052;29;20019;-85
2023/04/12 04:31:12;;;;;;;5.18;3.03;;;13.10;99.90;;;;;;4952577;29;20023;-86
2023/04/12 04:33:38;;;;;;;6.00;2.47;;;13.00;99.90;;;;;;4953562;28;20024;-85
2023/04/12 04:36:08;;;;;;;8.68;4.70;;;12.70;99.90;;;;;;4953942;28;20031;-85
2023/04/12 04:38:35;;;;;;;8.43;3.92;;;12.60;99.90;;;;;;4953804;28;20114;-86
2023/04/12 04:41:01;;;;;;;7.85;3.80;;;12.50;99.90;;;;;;4953946;28;20059;-85
2023/04/12 04:43:32;;;;;;;11.57;5.35;;;12.50;99.90;;;;;;4953721;28;20090;-85
2023/04/12 04:45:59;;;;;;;10.25;4.07;;;12.50;99.90;;;;;;4962057;28;20038;-85
2023/04/12 04:48:25;;;;;;;8.00;3.38;;;12.60;99.90;;;;;;4972692;28;20031;-85
2023/04/12 04:50:52;;;;;;;8.35;3.47;;;12.40;99.90;;;;;;4973579;28;20484;-85
2023/04/12 04:53:20;;;;;;;12.00;5.00;;;12.50;99.90;;;;;;4973060;28;20039;-85
2023/04/12 04:55:46;;;;;;;11.02;3.85;;;12.50;99.90;;;;;;4973353;28;20030;-85
2023/04/12 04:58:12;;;;;;;7.22;3.72;;;12.50;99.90;;;;;;4972849;28;20069;-86
2023/04/12 05:00:38;;;;;;;7.00;3.42;;;12.50;99.90;;;;;;4972645;28;20486;-86
2023/04/12 05:03:04;;;;;;;9.20;3.50;;;12.50;99.90;;;;;;4972858;28;20070;-85
2023/04/12 05:05:30;;;;;;;6.97;4.63;;;12.60;99.90;;;;;;4973836;28;20446;-86
2023/04/12 05:07:56;;;;;;;9.93;6.88;;;12.50;99.90;;;;;;4953946;28;20043;-86
2023/04/12 05:10:22;;;;;;;10.20;5.80;;;12.60;99.90;;;;;;4953593;29;20039;-85
2023/04/12 05:12:48;;;;;;;6.88;4.72;;;12.50;99.90;;;;;;4953775;29;20101;-85
2023/04/12 05:15:14;;;;;;;6.65;4.28;;;12.40;99.90;;;;;;4952687;28;20450;-86
2023/04/12 05:17:39;;;;;;;8.60;5.00;;;12.20;99.90;;;;;;4957221;29;20027;-85
2023/04/12 05:20:07;;;;;;;9.80;4.93;;;12.10;99.90;;;;;;4957251;29;20027;-86
2023/04/12 05:22:34;;;;;;;7.57;4.10;;;12.10;99.90;;;;;;4956907;29;20491;-86
2023/04/12 05:25:00;;;;;;;7.43;3.95;;;12.10;99.90;;;;;;4957049;29;20086;-86
2023/04/12 05:27:26;;;;;;;5.05;3.75;;;12.10;99.90;;;;;;4956945;29;20071;-85
2023/04/12 05:29:52;;;;;;;9.40;4.05;;;12.00;99.90;;;;;;4956967;29;20035;-86
2023/04/12 05:32:18;;;;;;;7.50;4.22;;;12.00;99.90;;;;;;4956487;29;20098;-86
2023/04/12 05:34:44;;;;;;;8.60;4.20;;;12.00;99.90;;;;;;4956699;28;20467;-85
2023/04/12 05:37:10;;;;;;;5.68;4.30;;;11.90;99.90;;;;;;4956896;28;20055;-86
2023/04/12 05:39:36;;;;;;;7.10;4.38;;;11.90;99.90;;;;;;4957260;28;20086;-85
2023/04/12 05:42:01;;;;;;;6.88;4.25;;;11.90;99.90;;;;;;4956842;28;20498;-85
2023/04/12 05:44:27;;;;;;;5.63;3.90;;;12.00;99.90;;;;;;4956710;28;20443;-86
2023/04/12 05:46:53;;;;;;;6.30;4.43;;;12.00;99.90;;;;;;4971488;28;20027;-86
2023/04/12 05:49:18;;;;;;;6.43;3.97;;;12.00;99.90;;;;;;4975980;28;20089;-85
2023/04/12 05:51:44;;;;;;;6.03;4.05;;;12.10;99.90;;;;;;4975771;28;20023;-86
2023/04/12 05:54:09;;;;;;;4.97;3.67;;;12.20;99.90;;;;;;4975779;28;20116;-86
2023/04/12 05:56:36;;;;;;;7.20;3.75;;;12.30;99.90;;;;;;4976208;28;20027;-86
2023/04/12 05:59:03;;;;;;;6.47;3.47;;;12.40;99.90;;;;;;4975133;28;20180;-86
2023/04/12 06:01:31;;;;;;;5.00;3.10;;;12.40;99.90;;;;;;4975053;28;20471;-86
2023/04/12 06:03:57;;;;;;;3.50;2.45;;;12.60;99.90;;;;;;4974842;28;20432;-85
2023/04/12 06:06:23;;;;;;;4.88;2.50;;;12.70;99.90;;;;;;4973841;28;20061;-86
2023/04/12 06:08:49;;;;;;;5.95;2.60;;;12.90;99.90;;;;;;4956443;28;20031;-86
2023/04/12 06:11:15;;;;;;;4.30;2.10;;;13.10;99.90;;;;;;4956093;28;20031;-85
2023/04/12 06:13:40;;;;;;;4.40;2.55;;;13.20;99.90;;;;;;4956606;28;20031;-85
2023/04/12 06:16:07;;;;;;;4.63;2.33;;;13.30;99.90;;;;;;4955672;28;20029;-85
2023/04/12 06:18:33;;;;;;;9.55;2.83;;;13.30;99.90;;;;;;4956078;28;20139;-86
2023/04/12 06:20:59;;;;;;;4.72;2.20;;;13.30;99.90;;;;;;4956695;28;20458;-90
2023/04/12 06:23:25;;;;;;;7.10;2.83;;;13.30;99.90;;;;;;4958592;28;20042;-89
2023/04/12 06:25:52;;;;;;;3.60;2.10;;;13.30;99.90;;;;;;4957790;28;20042;-89
2023/04/12 06:28:17;;;;;;;3.60;1.92;;;13.30;99.90;;;;;;4956583;28;20034;-91
2023/04/12 06:30:43;;;;;;;4.05;1.63;;;13.40;99.90;;;;;;4956096;28;20024;-90
2023/04/12 06:33:11;;;;;;;4.03;2.03;;;13.40;99.90;;;;;;4956294;28;20038;-91
2023/04/12 06:35:36;;;;;;;3.53;2.00;;;13.40;99.90;;;;;;4956662;28;20011;-91
2023/04/12 06:38:02;;;;;;;4.38;1.95;;;13.50;99.90;;;;;;4955776;28;20037;-86
2023/04/12 06:40:28;;;;;;;2.28;1.70;;;13.50;99.90;;;;;;4955687;28;20046;-86
2023/04/12 06:42:53;;;;;;;4.47;1.95;;;13.50;99.90;;;;;;4955920;28;20510;-86
2023/04/12 06:45:19;;;;;;;5.43;2.20;;;13.50;99.90;;;;;;4958188;28;20522;-86
2023/04/12 06:47:46;;;;;;;4.32;2.28;;;13.50;99.90;;;;;;4974728;28;20031;-86
2023/04/12 06:50:12;;;;;;;3.92;1.88;;;13.60;99.90;;;;;;4974782;28;20027;-86
2023/04/12 06:52:37;;;;;;;4.15;2.22;;;13.60;99.90;;;;;;4974735;28;20030;-86
2023/04/12 06:55:04;;;;;;;4.00;2.10;;;13.60;99.90;;;;;;4974635;28;20374;-85
2023/04/12 06:57:29;;;;;;;3.90;2.13;;;13.60;99.90;;;;;;4974392;28;20483;-86
2023/04/12 06:59:55;;;;;;;4.22;2.10;;;13.70;99.90;;;;;;4974472;28;20046;-86
2023/04/12 07:02:21;;;;;;;4.47;1.90;;;13.70;99.90;;;;;;4974321;28;20039;-86
2023/04/12 07:04:50;;;;;;;6.97;1.90;;;13.70;99.90;;;;;;4974789;28;20065;-86
2023/04/12 07:07:16;;;;;;;10.05;2.17;;;13.80;99.90;;;;;;4974432;28;20054;-87
2023/04/12 07:09:42;;;;;;;10.05;2.78;;;13.80;99.90;;;;;;4956718;28;20090;-86
2023/04/12 07:12:07;;;;;;;23.30;3.20;;;13.80;99.90;;;;;;4955489;29;20395;-85
2023/04/12 07:14:33;;;;;;;15.55;2.90;;;13.80;99.90;;;;;;4954730;29;20026;-85
2023/04/12 07:16:59;;;;;;;8.63;2.70;;;13.80;99.90;;;;;;4955149;29;20110;-86
2023/04/12 07:19:24;;;;;;;7.60;2.38;;;13.80;99.90;;;;;;4955214;29;20022;-86
2023/04/12 07:21:50;;;;;;;5.88;2.50;;;13.70;99.90;;;;;;4954882;29;20066;-86
2023/04/12 07:24:15;;;;;;;5.20;2.17;;;13.70;99.90;;;;;;4954785;29;20031;-86
2023/04/12 07:26:41;;;;;;;5.28;2.38;;;13.80;99.90;;;;;;4954547;29;20547;-86
2023/04/12 07:29:08;;;;;;;6.07;2.40;;;13.80;99.90;;;;;;4954996;29;20051;-86
2023/04/12 07:31:34;;;;;;;5.95;2.20;;;13.80;99.90;;;;;;4954692;29;20023;-85
2023/04/12 07:34:00;;;;;;;7.20;2.33;;;13.80;99.90;;;;;;4954762;29;20031;-86
2023/04/12 07:36:26;;;;;;;6.28;2.70;;;13.90;99.90;;;;;;4954458;28;20446;-86
2023/04/12 07:38:54;;;;;;;4.10;2.08;;;13.90;99.90;;;;;;4952983;28;20033;-86
2023/04/12 07:41:22;;;;;;;3.83;2.10;;;13.90;99.90;;;;;;4954318;28;20385;-86
2023/04/12 07:43:49;;;;;;;5.70;2.42;;;13.90;99.90;;;;;;4954497;28;20059;-86
2023/04/12 07:46:14;;;;;;;5.25;2.40;;;13.90;99.90;;;;;;4964748;28;20077;-86
2023/04/12 07:48:42;;;;;;;5.00;2.30;;;13.90;99.90;;;;;;4974103;28;20026;-86
2023/04/12 07:51:08;;;;;;;3.95;2.28;;;14.00;99.90;;;;;;4973619;28;20027;-86
2023/04/12 07:53:33;;;;;;;5.50;2.42;;;13.90;99.90;;;;;;4973494;28;20034;-86
2023/04/12 07:55:59;;;;;;;4.07;2.53;;;13.90;99.90;;;;;;4973414;28;20031;-86
2023/04/12 07:58:25;;;;;;;4.00;2.42;;;13.90;99.90;;;;;;4974324;28;20080;-86
2023/04/12 08:00:51;;;;;;;6.20;2.40;;;14.00;99.90;;;;;;4973470;28;20398;-86
2023/04/12 08:03:18;;;;;;;5.97;2.40;;;14.10;99.90;;;;;;4974287;28;20086;-86
2023/04/12 08:05:44;;;;;;;6.80;2.20;;;14.10;99.90;;;;;;4973478;28;20027;-86
2023/04/12 08:08:10;;;;;;;3.80;2.25;;;14.10;99.90;;;;;;4973956;28;20031;-86
2023/04/12 08:10:37;;;;;;;3.25;2.10;;;14.20;99.90;;;;;;4959561;28;20110;-86
2023/04/12 08:13:04;;;;;;;4.65;2.20;;;14.30;99.90;;;;;;4954046;29;20082;-86
2023/04/12 08:15:30;;;;;;;5.25;2.40;;;14.30;99.90;;;;;;4954224;29;20098;-86
2023/04/12 08:17:56;;;;;;;3.92;2.00;;;14.40;99.90;;;;;;4954380;29;20619;-86
2023/04/12 08:20:21;;;;;;;4.50;2.00;;;14.40;99.90;;;;;;4954028;29;20027;-86
2023/04/12 08:22:48;;;;;;;5.43;3.20;;;14.50;99.90;;;;;;4953979;29;20082;-86
2023/04/12 08:25:14;;;;;;;4.03;1.90;;;14.50;99.90;;;;;;4953565;29;20146;-86
2023/04/12 08:27:42;;;;;;;3.92;2.10;;;14.60;99.90;;;;;;4953904;29;20467;-86
2023/04/12 08:30:09;;;;;;;4.60;1.88;;;14.60;99.90;;;;;;4954798;29;20011;-86
2023/04/12 08:32:36;;;;;;;5.43;1.92;;;14.50;99.90;;;;;;4953922;28;20043;-86
2023/04/12 08:35:05;;;;;;;5.07;1.92;;;14.60;99.90;;;;;;4954230;29;20031;-86
2023/04/12 08:37:31;;;;;;;4.28;2.13;;;14.50;99.90;;;;;;4953704;28;20035;-86
2023/04/12 08:39:58;;;;;;;4.43;2.15;;;14.50;99.90;;;;;;4953317;28;20027;-86
2023/04/12 08:42:24;;;;;;;6.15;2.20;;;14.50;99.90;;;;;;4953823;28;20550;-86
2023/04/12 08:44:51;;;;;;;3.45;1.80;;;14.60;99.90;;;;;;4955004;28;20024;-85
2023/04/12 08:47:16;;;;;;;4.15;2.20;;;14.60;99.90;;;;;;4972344;28;20376;-85
2023/04/12 08:49:42;;;;;;;6.88;1.95;;;14.60;99.90;;;;;;4973050;28;20038;-86
2023/04/12 08:52:09;;;;;;;5.88;2.30;;;14.60;99.90;;;;;;4975877;28;20023;-85
2023/04/12 08:54:36;;;;;;;3.92;2.00;;;14.60;99.90;;;;;;4976510;28;20019;-85
2023/04/12 08:57:03;;;;;;;4.57;2.08;;;14.60;99.90;;;;;;4976827;28;20023;-85
2023/04/12 08:59:31;;;;;;;3.50;2.10;;;14.60;99.90;;;;;;4976669;28;20051;-86
2023/04/12 09:01:57;;;;;;;5.30;1.58;;;14.60;99.90;;;;;;4977078;28;20501;-85
2023/04/12 09:04:28;;;;;;;4.95;1.80;;;14.60;99.90;;;;;;4977590;28;20042;-86
2023/04/12 09:06:54;;;;;;;4.88;1.88;;;14.60;99.90;;;;;;4976623;28;20385;-85
2023/04/12 09:09:39;;;;;;;5.22;2.03;;;14.60;99.90;;;;;;4976254;28;20121;-85
2023/04/12 09:12:09;;;;;;;5.00;2.10;;;14.70;99.90;;;;;;4957584;29;20039;-86
2023/04/12 09:14:35;;;;;;;4.57;2.05;;;14.80;99.90;;;;;;4957182;29;20023;-86
2023/04/12 09:17:00;;;;;;;4.75;2.30;;;14.90;99.90;;;;;;4956963;29;20031;-86
2023/04/12 09:19:33;;;;;;;5.07;2.10;;;14.90;99.90;;;;;;4957143;29;20023;-86
2023/04/12 09:21:59;;;;;;;3.63;2.28;;;15.00;99.90;;;;;;4957548;29;20111;-86
2023/04/12 09:24:24;;;;;;;4.70;2.20;;;15.00;99.90;;;;;;4956425;28;20131;-85
2023/04/12 09:27:03;;;;;;;5.30;2.05;;;15.00;99.90;;;;;;4957784;29;20031;-86
2023/04/12 09:29:30;;;;;;;5.32;2.22;;;15.10;99.90;;;;;;4956992;29;20066;-86
2023/04/12 09:32:02;;;;;;;4.32;2.00;;;15.10;99.90;;;;;;4957115;29;20098;-86
2023/04/12 09:34:32;;;;;;;5.55;2.10;;;15.10;99.90;;;;;;4956875;29;20030;-85
2023/04/12 09:36:58;;;;;;;4.28;2.13;;;15.20;99.90;;;;;;4956579;29;20086;-86
2023/04/12 09:39:34;;;;;;;4.53;1.80;;;15.30;99.90;;;;;;4956342;28;20027;-86
2023/04/12 09:42:07;;;;;;;3.95;1.80;;;15.30;99.90;;;;;;4956844;28;20027;-86
2023/04/12 09:44:33;;;;;;;5.25;2.40;;;15.30;99.90;;;;;;4956619;28;20036;-86
2023/04/12 09:47:01;;;;;;;9.15;4.57;;;15.40;99.90;;;;;;4972962;28;20022;-86
2023/04/12 09:49:43;;;;;;;3.83;2.28;;;15.50;99.90;;;;;;4976319;28;20102;-86
2023/04/12 09:52:13;;;;;;;7.28;2.45;;;15.50;99.90;;;;;;4975529;28;20102;-86
2023/04/12 09:54:48;;;;;;;4.53;2.67;;;15.50;99.90;;;;;;4975909;28;20031;-86
2023/04/12 09:57:17;;;;;;;4.53;2.42;;;15.60;99.90;;;;;;4976046;28;20039;-85
2023/04/12 09:59:43;;;;;;;5.10;2.47;;;15.60;99.90;;;;;;4975753;28;20039;-86
2023/04/12 10:02:25;;;;;;;4.38;2.30;;;15.60;99.90;;;;;;4975346;28;20046;-86
2023/04/12 10:04:51;;;;;;;3.13;2.00;;;15.70;99.90;;;;;;4975659;28;20467;-86
2023/04/12 10:07:18;;;;;;;5.13;2.20;;;15.70;99.90;;;;;;4975171;28;20122;-86
2023/04/12 10:09:44;;;;;;;4.68;1.85;;;15.60;99.90;;;;;;4975957;28;20039;-86
2023/04/12 10:12:10;;;;;;;4.15;2.20;;;15.50;99.90;;;;;;4961250;28;20035;-86
2023/04/12 10:14:36;;;;;;;3.58;2.25;;;15.50;99.90;;;;;;4956169;29;20023;-86
2023/04/12 10:17:04;;;;;;;4.82;2.13;;;15.40;99.90;;;;;;4956207;29;20043;-86
2023/04/12 10:19:32;;;;;;;4.43;2.25;;;15.40;99.90;;;;;;4955519;29;20420;-86
2023/04/12 10:21:59;;;;;;;4.43;2.42;;;15.50;99.90;;;;;;4955637;28;20455;-85
2023/04/12 10:24:27;;;;;;;4.00;2.10;;;15.40;99.90;;;;;;4955838;29;20097;-86
2023/04/12 10:27:01;;;;;;;3.75;2.20;;;15.40;99.90;;;;;;4955939;29;20212;-86
2023/04/12 10:29:33;;;;;;;5.22;2.47;;;15.50;99.90;;;;;;4955918;29;20031;-86
2023/04/12 10:32:21;;;;;;;4.40;2.15;;;15.50;99.90;;;;;;4956635;29;20031;-86
2023/04/12 10:34:55;;;;;;;5.47;2.22;;;15.50;99.90;;;;;;4956125;29;20027;-86
2023/04/12 10:37:21;;;;;;;5.30;2.05;;;15.50;99.90;;;;;;4956195;29;20542;-85
2023/04/12 10:39:53;;;;;;;4.32;2.13;;;15.60;99.90;;;;;;4955557;28;20027;-85
2023/04/12 10:42:25;;;;;;;5.63;2.58;;;15.50;99.90;;;;;;4955570;28;20476;-86
2023/04/12 10:44:53;;;;;;;4.60;2.42;;;15.50;99.90;;;;;;4955826;28;20043;-86
2023/04/12 10:47:47;;;;;;;5.97;2.55;;;15.60;99.90;;;;;;4974371;28;20077;-86
2023/04/12 10:50:28;;;;;;;4.35;2.20;;;15.60;99.90;;;;;;4975007;28;20545;-86
2023/04/12 10:53:24;;;;;;;3.90;2.22;;;15.60;99.90;;;;;;4975271;28;20372;-86
2023/04/12 10:55:50;;;;;;;4.07;2.10;;;15.70;99.90;;;;;;4970343;28;20034;-86
2023/04/12 10:58:46;;;;;;;4.28;2.30;;;15.70;99.90;;;;;;4974736;28;20073;-86
2023/04/12 11:01:12;;;;;;;4.53;2.50;;;15.70;99.90;;;;;;4974302;28;20122;-86
2023/04/12 11:04:04;;;;;;;4.93;2.38;;;15.70;99.90;;;;;;4974608;28;20121;-86
2023/04/12 11:06:58;;;;;;;4.93;2.10;;;15.90;99.90;;;;;;4974492;28;20383;-86
2023/04/12 11:09:36;;;;;;;4.50;2.08;;;15.90;99.90;;;;;;4974722;28;20038;-86
2023/04/12 11:12:04;;;;;;;4.72;2.47;;;16.00;99.90;;;;;;4968916;28;20023;-86
2023/04/12 11:14:35;;;;;;;4.30;2.40;;;16.20;99.90;;;;;;4954639;28;20034;-86
2023/04/12 11:17:15;;;;;;;5.88;2.60;;;16.20;99.90;;;;;;4954980;29;20078;-86
2023/04/12 11:19:52;;;;;;;4.10;2.50;;;16.20;99.90;;;;;;4954609;29;20023;-86
2023/04/12 11:22:20;;;;;;;4.22;2.35;;;16.20;99.90;;;;;;4955112;29;20035;-86
2023/04/12 11:24:51;;;;;;;3.40;2.20;;;16.30;99.90;;;;;;4955011;29;20047;-85
2023/04/12 11:27:19;;;;;;;7.18;2.35;;;16.30;99.90;;;;;;4954788;29;20023;-86
2023/04/12 11:29:48;;;;;;;5.40;2.40;;;16.40;99.90;;;;;;4955214;29;20054;-86
2023/04/12 11:32:14;;;;;;;4.68;2.50;;;16.40;99.90;;;;;;4954956;29;20023;-86
2023/04/12 11:34:41;;;;;;;4.72;2.60;;;16.40;99.90;;;;;;4954331;29;20031;-86
2023/04/12 11:37:08;;;;;;;3.47;2.33;;;16.50;99.90;;;;;;4954486;29;20373;-85
2023/04/12 11:39:37;;;;;;;3.33;2.45;;;16.50;99.90;;;;;;4954721;28;20038;-85
2023/04/12 11:42:03;;;;;;;3.85;2.33;;;16.50;99.90;;;;;;4954635;28;20031;-86
2023/04/12 11:44:32;;;;;;;4.78;2.30;;;16.50;99.90;;;;;;4954951;28;20118;-86
2023/04/12 11:46:58;;;;;;;3.63;1.98;;;16.40;99.90;;;;;;4970316;28;20030;-86
2023/04/12 11:49:23;;;;;;;2.78;2.28;;;16.50;99.90;;;;;;4973287;28;20034;-85
2023/04/12 11:51:59;;;;;;;5.20;2.20;;;16.50;99.90;;;;;;4973622;28;20025;-86
2023/04/12 11:54:28;;;;;;;8.38;2.65;;;16.50;99.90;;;;;;4974047;28;20031;-86
2023/04/12 11:56:59;;;;;;;5.28;2.50;;;16.50;99.90;;;;;;4973609;28;20019;-86
2023/04/12 11:59:32;;;;;;;4.13;2.30;;;16.40;99.90;;;;;;4973541;28;20031;-86
2023/04/12 12:01:59;;;;;;;2.92;2.10;;;16.30;99.90;;;;;;4973361;28;20046;-86
2023/04/12 12:04:25;;;;;;;3.35;2.60;;;16.40;99.90;;;;;;4973231;28;20041;-86
2023/04/12 12:06:51;;;;;;;4.57;2.03;;;16.40;99.90;;;;;;4973720;28;20035;-86
2023/04/12 12:09:17;;;;;;;3.58;2.22;;;16.30;99.90;;;;;;4973520;28;20026;-86
2023/04/12 12:11:43;;;;;;;5.65;2.42;;;16.30;99.90;;;;;;4972114;28;20455;-85
2023/04/12 12:14:09;;;;;;;3.45;2.15;;;16.40;99.90;;;;;;4955801;28;20028;-86
2023/04/12 12:16:35;;;;;;;4.47;2.03;;;16.40;99.90;;;;;;4954328;29;20038;-86
2023/04/12 12:19:03;;;;;;;5.43;2.35;;;16.40;99.90;;;;;;4954144;29;20384;-86
2023/04/12 12:21:30;;;;;;;6.25;3.90;;;16.50;99.90;;;;;;4954283;29;20373;-86
2023/04/12 12:23:57;;;;;;;10.23;6.72;;;16.50;99.90;;;;;;4954027;29;20047;-86
2023/04/12 12:26:24;;;;;;;12.55;7.90;;;16.50;99.90;;;;;;4959305;28;20027;-85
2023/04/12 12:28:59;;;;;;;17.40;8.43;;;16.50;99.90;;;;;;4960717;29;20034;-86
2023/04/12 12:31:27;;;;;;;9.00;5.18;;;16.60;99.90;;;;;;4960899;28;20372;-86
2023/04/12 12:33:57;;;;;;;5.50;4.00;;;16.60;99.90;;;;;;4960810;29;20055;-86
2023/04/12 12:36:33;;;;;;;6.63;3.90;;;16.60;99.90;;;;;;4959942;28;20419;-86
2023/04/12 12:39:09;;;;;;;5.65;3.70;;;16.60;99.90;;;;;;4960816;28;20034;-86
2023/04/12 12:41:36;;;;;;;6.97;3.47;;;16.60;99.90;;;;;;4960168;28;20471;-85
2023/04/12 12:44:02;;;;;;;4.80;3.03;;;16.60;99.90;;;;;;4960306;28;20039;-86
2023/04/12 12:46:28;;;;;;;4.38;2.42;;;16.70;99.90;;;;;;4971902;28;20038;-86
2023/04/12 12:48:54;;;;;;;7.05;2.80;;;16.70;99.90;;;;;;4979682;28;20026;-86
2023/04/12 12:51:20;;;;;;;4.60;2.10;;;16.70;99.90;;;;;;4979968;28;20034;-86